createdAt,value
2023-05-25T00:01:37.830Z,15.70
2023-05-25T00:04:05.201Z,15.69
2023-05-25T00:06:33.130Z,15.59
2023-05-25T00:09:00.219Z,15.68
2023-05-25T00:11:27.558Z,15.54
2023-05-25T00:13:54.894Z,15.49
2023-05-25T00:16:22.004Z,15.53
2023-05-25T00:18:49.151Z,15.49
2023-05-25T00:21:16.547Z,15.44
2023-05-25T00:23:43.797Z,15.49
2023-05-25T00:26:11.050Z,15.45
2023-05-25T00:28:38.134Z,15.52
2023-05-25T00:31:05.327Z,15.36
2023-05-25T00:33:32.525Z,15.48
2023-05-25T00:36:00.247Z,15.26
2023-05-25T00:38:27.287Z,15.32
2023-05-25T00:40:57.523Z,15.26
2023-05-25T00:43:24.612Z,15.33
2023-05-25T00:45:51.850Z,15.21
2023-05-25T00:48:19.191Z,15.20
2023-05-25T00:50:46.635Z,15.17
2023-05-25T00:53:14.614Z,15.28
2023-05-25T00:56:02.528Z,15.21
2023-05-25T00:58:33.532Z,15.17
2023-05-25T01:01:01.927Z,15.21
2023-05-25T01:03:34.549Z,15.26
2023-05-25T01:06:02.737Z,15.13
2023-05-25T01:08:33.675Z,15.17
2023-05-25T01:11:03.344Z,15.16
2023-05-25T01:13:32.102Z,15.10
2023-05-25T01:15:59.319Z,15.26
2023-05-25T01:18:26.818Z,15.17
2023-05-25T01:21:13.508Z,15.13
2023-05-25T01:24:17.631Z,15.21
2023-05-25T01:26:58.138Z,15.05
2023-05-25T01:29:28.327Z,15.02
2023-05-25T01:31:58.531Z,15.12
2023-05-25T01:34:26.877Z,15.24
2023-05-25T01:36:54.472Z,15.36
2023-05-25T01:39:23.896Z,15.12
2023-05-25T01:41:50.965Z,15.08
2023-05-25T01:44:18.998Z,15.07
2023-05-25T01:46:50.238Z,15.23
2023-05-25T01:49:37.702Z,15.08
2023-05-25T01:52:18.466Z,15.25
2023-05-25T01:54:55.199Z,15.19
2023-05-25T01:57:24.567Z,15.11
2023-05-25T01:59:57.613Z,15.03
2023-05-25T02:02:26.336Z,15.10
2023-05-25T02:04:55.051Z,15.01
2023-05-25T02:07:23.745Z,15.12
2023-05-25T02:09:51.346Z,14.95
2023-05-25T02:12:18.437Z,15.02
2023-05-25T02:14:48.484Z,15.03
2023-05-25T02:17:17.955Z,14.91
2023-05-25T02:19:46.681Z,15.02
2023-05-25T02:22:13.730Z,15.10
2023-05-25T02:24:41.171Z,15.08
2023-05-25T02:27:08.506Z,15.14
2023-05-25T02:29:35.707Z,15.38
2023-05-25T02:32:02.843Z,15.14
2023-05-25T02:34:29.994Z,15.13
2023-05-25T02:36:57.087Z,15.12
2023-05-25T02:39:27.691Z,15.08
2023-05-25T02:41:55.037Z,14.99
2023-05-25T02:44:22.755Z,15.15
2023-05-25T02:46:49.857Z,15.20
2023-05-25T02:49:16.922Z,15.34
2023-05-25T02:51:43.981Z,15.23
2023-05-25T02:54:11.055Z,15.19
2023-05-25T02:56:38.076Z,15.39
2023-05-25T02:59:05.390Z,15.37
2023-05-25T03:01:35.069Z,15.10
2023-05-25T03:04:02.497Z,15.32
2023-05-25T03:06:29.609Z,15.24
2023-05-25T03:08:56.696Z,15.23
2023-05-25T03:11:23.806Z,15.11
2023-05-25T03:13:51.812Z,15.17
2023-05-25T03:16:18.994Z,15.12
2023-05-25T03:18:46.495Z,15.24
2023-05-25T03:21:13.577Z,15.47
2023-05-25T03:23:40.822Z,15.44
2023-05-25T03:26:07.961Z,15.35
2023-05-25T03:28:35.210Z,15.58
2023-05-25T03:31:02.353Z,15.39
2023-05-25T03:33:29.412Z,15.41
2023-05-25T03:35:56.734Z,15.63
2023-05-25T03:38:23.783Z,15.38
2023-05-25T03:40:50.902Z,15.37
2023-05-25T03:43:18.136Z,15.28
2023-05-25T03:45:45.467Z,15.56
2023-05-25T03:48:12.708Z,15.46
2023-05-25T03:50:40.960Z,15.47
2023-05-25T03:53:08.700Z,15.46
2023-05-25T03:55:35.791Z,15.46
2023-05-25T03:58:02.904Z,15.57
2023-05-25T04:00:30.031Z,15.57
2023-05-25T04:02:57.391Z,15.62
2023-05-25T04:05:24.684Z,15.54
2023-05-25T04:07:52.286Z,15.62
2023-05-25T04:10:19.368Z,15.67
2023-05-25T04:12:46.684Z,15.71
2023-05-25T04:15:14.564Z,15.61
2023-05-25T04:17:41.754Z,15.40
2023-05-25T04:20:09.670Z,15.57
2023-05-25T04:22:39.087Z,15.36
2023-05-25T04:25:08.246Z,15.46
2023-05-25T04:27:35.697Z,15.59
2023-05-25T04:30:04.199Z,15.61
2023-05-25T04:32:32.108Z,15.74
2023-05-25T04:34:59.413Z,15.87
2023-05-25T04:37:27.618Z,15.86
2023-05-25T04:39:54.829Z,15.93
2023-05-25T04:42:24.140Z,16.04
2023-05-25T04:45:00.829Z,16.17
2023-05-25T04:47:27.915Z,16.11
2023-05-25T04:49:55.047Z,15.96
2023-05-25T04:52:22.055Z,15.82
2023-05-25T04:54:49.109Z,15.73
2023-05-25T04:57:16.260Z,15.71
2023-05-25T04:59:43.375Z,15.70
2023-05-25T05:02:10.460Z,15.74
2023-05-25T05:04:38.602Z,15.66
2023-05-25T05:07:05.853Z,15.87
2023-05-25T05:09:32.893Z,15.92
2023-05-25T05:11:59.965Z,15.91
2023-05-25T05:14:27.011Z,15.92
2023-05-25T05:16:54.197Z,16.04
2023-05-25T05:19:21.352Z,16.24
2023-05-25T05:21:48.410Z,16.15
2023-05-25T05:24:15.623Z,16.18
2023-05-25T05:26:56.200Z,16.01
2023-05-25T05:29:25.152Z,16.24
2023-05-25T05:31:52.331Z,16.20
2023-05-25T05:34:19.467Z,16.13
2023-05-25T05:36:57.372Z,15.89
2023-05-25T05:39:26.311Z,16.16
2023-05-25T05:41:54.445Z,16.24
2023-05-25T05:44:23.926Z,16.17
2023-05-25T05:46:52.621Z,15.98
2023-05-25T05:49:19.788Z,16.03
2023-05-25T05:51:46.807Z,15.96
2023-05-25T05:54:13.854Z,16.15
2023-05-25T05:56:41.129Z,16.00
2023-05-25T05:59:08.499Z,16.19
2023-05-25T06:01:36.722Z,16.22
2023-05-25T06:04:06.236Z,16.31
2023-05-25T06:06:35.173Z,16.22
2023-05-25T06:09:04.500Z,16.37
2023-05-25T06:11:31.634Z,16.41
2023-05-25T06:13:58.758Z,16.44
2023-05-25T06:16:25.869Z,16.58
2023-05-25T06:18:52.948Z,16.45
2023-05-25T06:21:20.112Z,16.71
2023-05-25T06:23:48.281Z,16.65
2023-05-25T06:26:15.421Z,16.80
2023-05-25T06:28:42.726Z,16.48
2023-05-25T06:31:09.833Z,16.96
2023-05-25T06:33:36.866Z,16.56
2023-05-25T06:36:04.926Z,16.82
2023-05-25T06:38:32.296Z,16.78
2023-05-25T06:41:03.358Z,16.85
2023-05-25T06:43:32.258Z,16.87
2023-05-25T06:45:59.585Z,17.07
2023-05-25T06:48:26.724Z,16.76
2023-05-25T06:50:53.764Z,16.80
2023-05-25T06:53:20.825Z,16.60
2023-05-25T06:55:48.306Z,16.76
2023-05-25T06:58:15.569Z,16.66
2023-05-25T07:00:43.675Z,16.70
2023-05-25T07:03:11.817Z,16.79
2023-05-25T07:05:38.953Z,16.66
2023-05-25T07:08:06.358Z,16.62
2023-05-25T07:10:34.641Z,16.79
2023-05-25T07:13:01.660Z,16.76
2023-05-25T07:15:28.786Z,16.87
2023-05-25T07:17:57.440Z,16.94
2023-05-25T07:20:25.117Z,16.89
2023-05-25T07:22:53.478Z,17.16
2023-05-25T07:25:21.342Z,17.04
2023-05-25T07:27:50.324Z,17.13
2023-05-25T07:30:17.503Z,17.14
2023-05-25T07:32:44.620Z,17.55
2023-05-25T07:35:11.719Z,17.32
2023-05-25T07:37:38.807Z,17.21
2023-05-25T07:40:06.952Z,17.19
2023-05-25T07:42:34.331Z,17.44
2023-05-25T07:45:02.451Z,17.40
2023-05-25T07:47:29.808Z,17.62
2023-05-25T07:49:57.034Z,17.87
2023-05-25T07:52:24.186Z,17.83
2023-05-25T07:54:51.414Z,18.15
2023-05-25T07:57:18.633Z,18.53
2023-05-25T07:59:45.699Z,18.17
2023-05-25T08:02:12.863Z,18.15
2023-05-25T08:04:40.115Z,18.24
2023-05-25T08:07:07.545Z,18.26
2023-05-25T08:09:34.577Z,18.15
2023-05-25T08:12:23.841Z,18.28
2023-05-25T08:14:48.906Z,18.15
2023-05-25T08:17:16.110Z,18.28
2023-05-25T08:19:43.212Z,18.40
2023-05-25T08:22:10.298Z,18.41
2023-05-25T08:24:37.440Z,18.54
2023-05-25T08:27:04.972Z,18.78
2023-05-25T08:29:32.002Z,18.96
2023-05-25T08:31:59.055Z,19.27
2023-05-25T08:34:26.196Z,19.58
2023-05-25T08:36:53.335Z,20.04
2023-05-25T08:39:20.484Z,20.19
2023-05-25T08:41:48.352Z,20.73
2023-05-25T08:44:15.568Z,21.23
2023-05-25T08:46:42.876Z,21.42
2023-05-25T08:49:11.256Z,21.40
2023-05-25T08:51:48.175Z,21.73
2023-05-25T08:54:26.491Z,22.25
2023-05-25T08:56:59.968Z,22.83
2023-05-25T08:59:53.218Z,22.99
2023-05-25T09:02:42.391Z,23.17
2023-05-25T09:05:09.978Z,23.79
2023-05-25T09:07:37.342Z,24.23
2023-05-25T09:10:05.187Z,24.16
2023-05-25T09:12:32.751Z,24.66
2023-05-25T09:15:00.064Z,25.14
2023-05-25T09:17:27.387Z,24.96
2023-05-25T09:19:55.014Z,24.66
2023-05-25T09:22:22.411Z,24.47
2023-05-25T09:24:50.074Z,25.07
2023-05-25T09:27:22.400Z,25.51
2023-05-25T09:29:51.018Z,24.62
2023-05-25T09:32:19.670Z,25.45
2023-05-25T09:34:48.033Z,25.30
2023-05-25T09:37:19.230Z,25.80
2023-05-25T09:39:47.940Z,25.36
2023-05-25T09:42:15.294Z,25.57
2023-05-25T09:44:45.508Z,25.43
2023-05-25T09:47:13.974Z,24.80
2023-05-25T09:49:42.047Z,25.44
2023-05-25T09:52:09.399Z,25.43
2023-05-25T09:54:38.378Z,25.71
2023-05-25T09:57:06.354Z,25.89
2023-05-25T09:59:33.410Z,26.04
2023-05-25T10:02:01.221Z,25.43
2023-05-25T10:04:28.524Z,25.10
2023-05-25T10:06:57.047Z,25.07
2023-05-25T10:09:26.098Z,25.08
2023-05-25T10:11:54.928Z,24.73
2023-05-25T10:14:29.373Z,24.60
2023-05-25T10:16:59.629Z,24.03
2023-05-25T10:19:50.934Z,23.90
2023-05-25T10:22:36.406Z,23.84
2023-05-25T10:25:40.017Z,23.60
2023-05-25T10:28:35.715Z,23.42
2023-05-25T10:31:05.362Z,23.40
2023-05-25T10:33:33.660Z,23.15
2023-05-25T10:38:37.510Z,23.34
2023-05-25T10:41:06.080Z,23.23
2023-05-25T10:43:33.558Z,23.01
2023-05-25T10:46:01.116Z,22.83
2023-05-25T10:48:46.867Z,22.98
2023-05-25T10:51:15.735Z,23.01
2023-05-25T10:53:47.604Z,23.05
2023-05-25T10:56:14.933Z,22.79
2023-05-25T10:58:44.251Z,22.92
2023-05-25T11:01:15.903Z,22.86
2023-05-25T11:03:59.015Z,22.49
2023-05-25T11:06:40.378Z,22.64
2023-05-25T11:09:07.807Z,22.69
2023-05-25T11:11:44.525Z,22.85
2023-05-25T11:14:42.201Z,22.89
2023-05-25T11:17:14.806Z,22.98
2023-05-25T11:19:56.428Z,22.98
2023-05-25T11:22:35.506Z,23.33
2023-05-25T11:25:24.304Z,23.78
2023-05-25T11:27:54.319Z,24.09
2023-05-25T11:30:28.404Z,24.14
2023-05-25T11:32:59.697Z,24.20
2023-05-25T11:35:26.954Z,24.35
2023-05-25T11:37:55.109Z,24.57
2023-05-25T11:40:25.231Z,24.49
2023-05-25T11:42:53.779Z,24.26
2023-05-25T11:45:23.276Z,24.95
2023-05-25T11:47:50.389Z,25.12
2023-05-25T11:50:17.898Z,24.95
2023-05-25T11:52:45.077Z,25.51
2023-05-25T11:55:15.918Z,25.59
2023-05-25T11:57:43.197Z,25.74
2023-05-25T12:00:11.530Z,25.97
2023-05-25T12:02:41.238Z,25.72
2023-05-25T12:05:11.168Z,25.88
2023-05-25T12:07:46.722Z,25.92
2023-05-25T12:10:16.637Z,26.10
2023-05-25T12:12:44.679Z,26.48
2023-05-25T12:15:31.556Z,26.07
2023-05-25T12:17:58.913Z,25.62
2023-05-25T12:20:26.288Z,25.68
2023-05-25T12:22:53.950Z,25.51
2023-05-25T12:25:22.557Z,25.86
2023-05-25T12:27:49.799Z,25.71
2023-05-25T12:30:16.937Z,25.93
2023-05-25T12:33:04.212Z,25.82
2023-05-25T12:35:48.799Z,25.78
2023-05-25T12:38:23.745Z,25.76
2023-05-25T12:41:09.586Z,25.81
2023-05-25T12:43:39.213Z,25.92
2023-05-25T12:46:06.260Z,25.99
2023-05-25T12:48:33.369Z,26.10
2023-05-25T12:51:00.854Z,26.12
2023-05-25T12:53:29.109Z,26.35
2023-05-25T12:56:04.299Z,26.68
2023-05-25T12:58:31.410Z,26.52
2023-05-25T13:00:58.619Z,26.67
2023-05-25T13:03:25.683Z,26.52
2023-05-25T13:06:03.609Z,26.12
2023-05-25T13:08:30.793Z,26.39
2023-05-25T13:10:57.941Z,26.14
2023-05-25T13:13:25.001Z,25.76
2023-05-25T13:15:52.029Z,25.96
2023-05-25T13:18:19.056Z,26.04
2023-05-25T13:20:49.888Z,26.05
2023-05-25T13:23:18.459Z,26.07
2023-05-25T13:25:46.234Z,26.24
2023-05-25T13:28:13.260Z,26.24
2023-05-25T13:30:40.379Z,26.28
2023-05-25T13:33:07.478Z,26.72
2023-05-25T13:35:41.711Z,26.47
2023-05-25T13:38:10.562Z,26.76
2023-05-25T13:40:37.675Z,26.32
2023-05-25T13:43:04.841Z,26.31
2023-05-25T13:45:31.901Z,26.29
2023-05-25T13:47:59.034Z,26.54
2023-05-25T13:50:26.318Z,26.63
2023-05-25T13:52:53.393Z,26.70
2023-05-25T13:55:20.553Z,26.73
2023-05-25T13:57:47.568Z,26.30
2023-05-25T14:00:15.116Z,26.15
2023-05-25T14:02:42.285Z,26.36
2023-05-25T14:05:09.615Z,26.38
2023-05-25T14:07:37.563Z,26.09
2023-05-25T14:10:05.963Z,26.15
2023-05-25T14:12:33.226Z,26.04
2023-05-25T14:15:00.462Z,25.79
2023-05-25T14:17:27.531Z,25.82
2023-05-25T14:19:54.605Z,26.01
2023-05-25T14:22:21.682Z,26.10
2023-05-25T14:24:48.685Z,26.11
2023-05-25T14:27:20.922Z,26.11
2023-05-25T14:29:49.660Z,26.17
2023-05-25T14:32:17.678Z,25.96
2023-05-25T14:34:45.336Z,25.96
2023-05-25T14:37:12.448Z,25.82
2023-05-25T14:39:39.546Z,25.62
2023-05-25T14:42:06.916Z,25.49
2023-05-25T14:44:33.962Z,25.38
2023-05-25T14:47:01.178Z,25.28
2023-05-25T14:49:28.413Z,25.39
2023-05-25T14:51:55.530Z,25.29
2023-05-25T14:54:22.563Z,25.27
2023-05-25T14:56:49.657Z,25.39
2023-05-25T14:59:17.062Z,25.35
2023-05-25T15:01:44.946Z,25.51
2023-05-25T15:04:13.032Z,25.47
2023-05-25T15:06:40.702Z,25.61
2023-05-25T15:09:07.822Z,25.40
2023-05-25T15:11:35.058Z,25.35
2023-05-25T15:14:02.235Z,25.28
2023-05-25T15:16:29.309Z,25.23
2023-05-25T15:18:56.402Z,25.20
2023-05-25T15:21:23.491Z,25.29
2023-05-25T15:23:51.058Z,25.37
2023-05-25T15:26:18.094Z,25.03
2023-05-25T15:28:45.164Z,24.85
2023-05-25T15:31:12.297Z,24.87
2023-05-25T15:33:51.960Z,24.99
2023-05-25T15:36:21.238Z,25.06
2023-05-25T15:38:49.481Z,24.92
2023-05-25T15:41:17.674Z,24.91
2023-05-25T15:43:54.636Z,24.89
2023-05-25T15:46:21.989Z,24.91
2023-05-25T15:48:49.203Z,25.06
2023-05-25T15:51:16.353Z,25.11
2023-05-25T15:53:43.563Z,25.08
2023-05-25T15:56:11.061Z,25.53
2023-05-25T15:58:38.275Z,25.51
2023-05-25T16:01:05.582Z,25.30
2023-05-25T16:03:32.750Z,25.20
2023-05-25T16:05:59.907Z,25.03
2023-05-25T16:08:26.982Z,25.01
2023-05-25T16:10:54.068Z,24.92
2023-05-25T16:13:21.093Z,24.80
2023-05-25T16:15:48.174Z,24.89
2023-05-25T16:18:16.642Z,24.73
2023-05-25T16:20:44.234Z,24.85
2023-05-25T16:23:11.414Z,24.81
2023-05-25T16:25:38.497Z,24.89
2023-05-25T16:28:05.527Z,24.64
2023-05-25T16:30:32.523Z,24.48
2023-05-25T16:32:59.553Z,24.52
2023-05-25T16:35:26.595Z,24.46
2023-05-25T16:37:53.690Z,24.41
2023-05-25T16:40:20.851Z,24.35
2023-05-25T16:42:47.872Z,24.34
2023-05-25T16:45:14.974Z,24.28
2023-05-25T16:47:42.057Z,24.11
2023-05-25T16:50:09.445Z,24.11
2023-05-25T16:52:36.431Z,24.01
2023-05-25T16:55:03.753Z,23.94
2023-05-25T16:57:30.761Z,23.87
2023-05-25T16:59:57.801Z,24.01
2023-05-25T17:02:25.139Z,23.89
2023-05-25T17:04:52.219Z,23.93
2023-05-25T17:07:19.286Z,23.79
2023-05-25T17:09:46.312Z,23.91
2023-05-25T17:12:13.353Z,23.90
2023-05-25T17:14:40.398Z,23.69
2023-05-25T17:17:07.468Z,23.63
2023-05-25T17:19:34.842Z,23.56
2023-05-25T17:22:01.922Z,23.63
2023-05-25T17:24:28.943Z,23.55
2023-05-25T17:26:56.116Z,23.43
2023-05-25T17:29:23.178Z,23.44
2023-05-25T17:31:50.591Z,23.40
2023-05-25T17:34:17.674Z,23.34
2023-05-25T17:36:44.747Z,23.30
2023-05-25T17:39:11.767Z,23.23
2023-05-25T17:41:38.812Z,23.09
2023-05-25T17:44:06.082Z,23.17
2023-05-25T17:46:33.160Z,23.13
2023-05-25T17:49:04.469Z,23.11
2023-05-25T17:51:31.497Z,22.88
2023-05-25T17:53:58.495Z,22.71
2023-05-25T17:56:26.505Z,22.51
2023-05-25T17:58:53.568Z,22.48
2023-05-25T18:01:20.866Z,22.41
2023-05-25T18:03:50.682Z,22.39
2023-05-25T18:06:17.864Z,22.46
2023-05-25T18:08:44.935Z,22.45
2023-05-25T18:11:11.951Z,22.34
2023-05-25T18:13:40.097Z,22.33
2023-05-25T18:16:07.123Z,22.19
2023-05-25T18:18:34.171Z,22.06
2023-05-25T18:21:01.198Z,22.02
2023-05-25T18:23:28.195Z,21.91
2023-05-25T18:25:55.277Z,22.00
2023-05-25T18:28:23.582Z,21.86
2023-05-25T18:30:50.703Z,21.75
2023-05-25T18:33:17.769Z,21.75
2023-05-25T18:35:45.087Z,21.73
2023-05-25T18:38:12.332Z,21.69
2023-05-25T18:40:39.376Z,21.70
2023-05-25T18:43:07.787Z,21.65
2023-05-25T18:45:34.930Z,21.61
2023-05-25T18:48:07.613Z,21.57
2023-05-25T18:50:39.448Z,21.52
2023-05-25T18:53:09.819Z,21.46
2023-05-25T18:55:37.763Z,21.59
2023-05-25T18:58:05.007Z,21.73
2023-05-25T19:00:32.082Z,21.79
2023-05-25T19:02:59.389Z,21.59
2023-05-25T19:05:26.552Z,21.50
2023-05-25T19:07:59.179Z,21.51
2023-05-25T19:10:27.061Z,21.42
2023-05-25T19:12:54.189Z,21.42
2023-05-25T19:15:21.396Z,21.40
2023-05-25T19:17:48.481Z,21.58
2023-05-25T19:20:15.975Z,21.52
2023-05-25T19:22:43.530Z,21.36
2023-05-25T19:25:10.727Z,21.25
2023-05-25T19:27:37.749Z,21.11
2023-05-25T19:30:05.501Z,21.11
2023-05-25T19:32:32.702Z,21.16
2023-05-25T19:34:59.804Z,21.19
2023-05-25T19:37:27.064Z,21.27
2023-05-25T19:39:54.099Z,21.14
2023-05-25T19:42:21.160Z,21.11
2023-05-25T19:44:48.182Z,21.10
2023-05-25T19:47:15.266Z,20.93
2023-05-25T19:49:42.903Z,20.87
2023-05-25T19:52:10.032Z,20.80
2023-05-25T19:54:38.650Z,20.91
2023-05-25T19:57:06.829Z,20.77
2023-05-25T19:59:33.962Z,20.79
2023-05-25T20:02:01.067Z,20.85
2023-05-25T20:04:28.066Z,20.75
2023-05-25T20:06:55.459Z,20.63
2023-05-25T20:09:30.731Z,20.77
2023-05-25T20:11:58.661Z,20.64
2023-05-25T20:14:26.523Z,20.72
2023-05-25T20:16:55.953Z,20.58
2023-05-25T20:19:25.860Z,20.59
2023-05-25T20:21:53.017Z,20.53
2023-05-25T20:24:20.099Z,20.44
2023-05-25T20:26:47.125Z,20.49
2023-05-25T20:29:15.277Z,20.35
2023-05-25T20:31:42.377Z,20.24
2023-05-25T20:34:09.422Z,20.13
2023-05-25T20:36:36.667Z,20.12
2023-05-25T20:39:03.823Z,20.12
2023-05-25T20:41:30.992Z,20.11
2023-05-25T20:43:58.154Z,19.97
2023-05-25T20:46:26.262Z,19.97
2023-05-25T20:48:53.826Z,19.87
2023-05-25T20:51:21.945Z,19.83
2023-05-25T20:53:49.391Z,19.74
2023-05-25T20:56:17.102Z,19.71
2023-05-25T20:58:44.585Z,19.75
2023-05-25T21:01:12.380Z,19.77
2023-05-25T21:03:40.076Z,19.73
2023-05-25T21:06:07.484Z,19.65
2023-05-25T21:08:35.150Z,19.58
2023-05-25T21:11:02.533Z,19.62
2023-05-25T21:13:29.588Z,19.76
2023-05-25T21:15:56.828Z,19.74
2023-05-25T21:18:24.043Z,19.70
2023-05-25T21:20:51.150Z,19.62
2023-05-25T21:23:18.225Z,19.73
2023-05-25T21:25:46.000Z,19.60
2023-05-25T21:28:13.394Z,19.69
2023-05-25T21:30:40.422Z,19.63
2023-05-25T21:33:07.634Z,19.53
2023-05-25T21:35:34.717Z,19.48
2023-05-25T21:38:01.837Z,19.62
2023-05-25T21:40:28.819Z,19.42
2023-05-25T21:42:55.836Z,19.38
2023-05-25T21:45:22.934Z,19.38
2023-05-25T21:47:50.136Z,19.29
2023-05-25T21:50:17.214Z,19.33
2023-05-25T21:52:44.364Z,19.29
2023-05-25T21:55:11.451Z,19.32
2023-05-25T21:57:38.490Z,19.11
2023-05-25T22:00:06.609Z,19.07
2023-05-25T22:02:33.917Z,18.97
2023-05-25T22:05:01.054Z,19.12
2023-05-25T22:07:28.162Z,19.00
2023-05-25T22:09:55.425Z,18.95
2023-05-25T22:12:22.594Z,18.88
2023-05-25T22:14:50.029Z,18.93
2023-05-25T22:17:19.148Z,18.93
2023-05-25T22:19:55.329Z,18.89
2023-05-25T22:22:33.290Z,18.87
2023-05-25T22:25:00.349Z,18.81
2023-05-25T22:27:27.458Z,18.86
2023-05-25T22:29:54.534Z,18.70
2023-05-25T22:32:21.732Z,18.59
2023-05-25T22:34:49.030Z,18.68
2023-05-25T22:37:17.451Z,18.89
2023-05-25T22:39:44.985Z,18.68
2023-05-25T22:42:12.036Z,18.72
2023-05-25T22:44:39.273Z,18.61
2023-05-25T22:47:07.076Z,18.71
2023-05-25T22:49:41.269Z,18.55
2023-05-25T22:52:11.234Z,18.48
2023-05-25T22:54:38.378Z,18.70
2023-05-25T22:57:06.497Z,18.43
2023-05-25T22:59:33.598Z,18.34
2023-05-25T23:02:00.854Z,18.34
2023-05-25T23:04:28.143Z,18.33
2023-05-25T23:06:55.215Z,18.54
2023-05-25T23:09:22.303Z,18.52
2023-05-25T23:11:49.361Z,18.42
2023-05-25T23:14:16.384Z,18.48
2023-05-25T23:16:44.472Z,18.43
2023-05-25T23:19:11.663Z,18.50
2023-05-25T23:21:38.724Z,18.30
2023-05-25T23:24:06.300Z,18.21
2023-05-25T23:26:33.341Z,18.21
2023-05-25T23:29:00.395Z,17.91
2023-05-25T23:31:27.509Z,17.94
2023-05-25T23:33:54.596Z,17.94
2023-05-25T23:36:21.612Z,17.82
2023-05-25T23:38:48.665Z,17.90
2023-05-25T23:41:16.579Z,17.91
2023-05-25T23:43:43.676Z,17.96
2023-05-25T23:46:10.823Z,17.60
2023-05-25T23:48:37.921Z,17.68
2023-05-25T23:51:07.472Z,17.53
2023-05-25T23:53:34.799Z,17.55
2023-05-25T23:56:01.875Z,17.58
2023-05-25T23:58:28.911Z,17.47
